Time;durP1;ratioP1;P1;durP2;ratioP2;P2;SDS_P1;SDS_P2;PMS_P1;PMS_P2;Temp;Humidity;BMP_temperature;BMP_pressure;BME280_temperature;BME280_humidity;BME280_pressure;Samples;Min_cycle;Max_cycle;Signal;HPM_P1;HPM_P2
2021/04/15 00:01:45;;;;;;;30.73;7.23;;;0.80;90.50;;;;;;5032807;28;20165;-80
2021/04/15 00:04:12;;;;;;;8.83;6.03;;;0.80;90.50;;;;;;5034123;28;20172;-80
2021/04/15 00:06:38;;;;;;;12.50;5.87;;;0.80;90.40;;;;;;5033037;28;20173;-79
2021/04/15 00:09:14;;;;;;;30.40;6.00;;;0.80;90.30;;;;;;5035630;28;20275;-79
2021/04/15 00:11:40;;;;;;;18.03;6.67;;;0.70;90.10;;;;;;5035561;28;20243;-79
2021/04/15 00:14:09;;;;;;;17.00;5.90;;;0.70;90.20;;;;;;5033775;28;20165;-79
2021/04/15 00:16:35;;;;;;;12.17;6.03;;;0.60;90.10;;;;;;5032928;28;20581;-79
2021/04/15 00:19:03;;;;;;;10.33;5.00;;;0.60;90.10;;;;;;5032754;28;20641;-79
2021/04/15 00:21:29;;;;;;;22.47;6.03;;;0.50;90.00;;;;;;5033929;28;20168;-79
2021/04/15 00:23:55;;;;;;;11.43;5.93;;;0.50;90.00;;;;;;5032947;28;20232;-79
2021/04/15 00:26:24;;;;;;;18.23;5.97;;;0.60;90.10;;;;;;5035412;28;20699;-79
2021/04/15 00:28:51;;;;;;;12.73;5.90;;;0.60;90.00;;;;;;5032607;28;20292;-79
2021/04/15 00:31:18;;;;;;;9.90;5.80;;;0.50;89.90;;;;;;5033784;28;20665;-79
2021/04/15 00:33:44;;;;;;;13.40;6.83;;;0.50;89.90;;;;;;5033675;28;20256;-79
2021/04/15 00:36:10;;;;;;;10.87;5.33;;;0.50;89.90;;;;;;5032403;28;20201;-79
2021/04/15 00:38:36;;;;;;;12.37;4.93;;;0.40;89.80;;;;;;5034010;28;20174;-79
2021/04/15 00:41:03;;;;;;;15.23;5.30;;;0.40;89.70;;;;;;5034044;28;20197;-79
2021/04/15 00:43:32;;;;;;;11.50;5.27;;;0.30;89.50;;;;;;5033653;28;20177;-79
2021/04/15 00:46:08;;;;;;;15.10;5.50;;;0.30;89.40;;;;;;5032184;28;20185;-79
2021/04/15 00:48:39;;;;;;;8.27;5.37;;;0.30;89.10;;;;;;5033712;28;20568;-79
2021/04/15 00:51:41;;;;;;;9.43;5.40;;;0.20;89.00;;;;;;5033715;28;20539;-79
2021/04/15 00:54:16;;;;;;;10.27;5.07;;;0.20;88.80;;;;;;5033146;28;20660;-79
2021/04/15 00:56:42;;;;;;;14.60;6.07;;;0.20;88.40;;;;;;5033368;28;20248;-79
2021/04/15 00:59:08;;;;;;;11.03;6.30;;;0.30;89.10;;;;;;5033709;28;20631;-79
2021/04/15 01:01:35;;;;;;;16.17;6.57;;;0.30;89.60;;;;;;5033337;28;20169;-79
2021/04/15 01:04:01;;;;;;;23.63;6.80;;;0.30;89.90;;;;;;5033745;28;20592;-79
2021/04/15 01:06:27;;;;;;;13.47;6.73;;;0.20;90.20;;;;;;5032076;28;20177;-79
2021/04/15 01:08:53;;;;;;;10.77;6.20;;;0.20;90.30;;;;;;5033241;28;20215;-79
2021/04/15 01:11:47;;;;;;;18.37;7.00;;;0.10;90.40;;;;;;5033219;28;20299;-79
2021/04/15 01:14:15;;;;;;;15.93;7.33;;;0.20;90.50;;;;;;5033223;28;20216;-79
2021/04/15 01:17:00;;;;;;;16.77;6.70;;;0.10;90.60;;;;;;5032193;28;20605;-79
2021/04/15 01:19:56;;;;;;;14.07;6.30;;;0.10;90.40;;;;;;5033486;28;20196;-79
2021/04/15 01:22:45;;;;;;;11.90;7.00;;;0.00;90.30;;;;;;5033681;28;20203;-79
2021/04/15 01:25:27;;;;;;;10.00;5.70;;;0.10;90.30;;;;;;5033294;28;20176;-79
2021/04/15 01:28:06;;;;;;;7.20;5.63;;;0.00;90.30;;;;;;5033327;28;20176;-79
2021/04/15 01:30:40;;;;;;;17.80;6.13;;;0.00;90.30;;;;;;5033339;28;20200;-79
2021/04/15 01:33:25;;;;;;;8.43;6.13;;;0.00;90.30;;;;;;5033654;28;20602;-79
2021/04/15 01:36:00;;;;;;;15.97;6.37;;;0.00;90.20;;;;;;5033296;28;20154;-79
2021/04/15 01:38:28;;;;;;;13.10;6.17;;;0.00;90.10;;;;;;5031826;28;20593;-79
2021/04/15 01:41:04;;;;;;;12.17;5.90;;;0.00;89.90;;;;;;5031584;28;20247;-79
2021/04/15 01:43:38;;;;;;;10.83;6.23;;;0.00;89.80;;;;;;5033087;28;20619;-79
2021/04/15 01:46:05;;;;;;;9.23;6.10;;;0.00;89.50;;;;;;5033203;28;20165;-79
2021/04/15 01:48:48;;;;;;;13.40;5.93;;;0.00;89.30;;;;;;5033012;28;20203;-79
2021/04/15 01:51:22;;;;;;;11.80;6.43;;;-0.10;89.10;;;;;;5033077;28;20271;-79
2021/04/15 01:53:59;;;;;;;11.83;6.40;;;-0.10;88.80;;;;;;5031766;28;20199;-79
2021/04/15 01:56:49;;;;;;;14.90;5.90;;;-0.10;88.60;;;;;;5033045;28;20157;-79
2021/04/15 01:59:28;;;;;;;10.47;5.37;;;-0.10;88.50;;;;;;5032752;28;20189;-79
2021/04/15 02:01:56;;;;;;;9.87;6.00;;;-0.10;88.20;;;;;;5033158;28;20161;-79
2021/04/15 02:04:27;;;;;;;13.13;6.37;;;-0.20;88.00;;;;;;5033422;28;20594;-79
2021/04/15 02:07:07;;;;;;;14.37;6.83;;;-0.20;87.80;;;;;;5035214;28;20259;-80
2021/04/15 02:09:34;;;;;;;8.20;5.80;;;-0.20;87.50;;;;;;5036365;28;20598;-80
2021/04/15 02:12:03;;;;;;;12.37;6.47;;;-0.20;87.40;;;;;;5035045;28;20626;-79
2021/04/15 02:14:34;;;;;;;8.53;6.37;;;-0.30;87.30;;;;;;5035033;28;20224;-79
2021/04/15 02:17:02;;;;;;;11.07;6.93;;;-0.30;87.40;;;;;;5034996;28;20207;-79
2021/04/15 02:19:45;;;;;;;10.70;6.97;;;-0.30;87.60;;;;;;5036129;28;20742;-79
2021/04/15 02:22:11;;;;;;;14.00;6.17;;;-0.40;87.60;;;;;;5036434;28;20165;-80
2021/04/15 02:24:58;;;;;;;15.03;6.43;;;-0.40;87.60;;;;;;5036249;28;20184;-79
2021/04/15 02:27:42;;;;;;;15.03;6.37;;;-0.40;87.40;;;;;;5034758;28;20181;-79
2021/04/15 02:30:23;;;;;;;10.77;6.70;;;-0.40;87.30;;;;;;5036099;28;20287;-79
2021/04/15 02:33:06;;;;;;;11.13;6.43;;;-0.40;87.30;;;;;;5034901;28;20260;-79
2021/04/15 02:35:49;;;;;;;13.70;5.97;;;-0.40;87.10;;;;;;5035239;28;20586;-79
2021/04/15 02:38:19;;;;;;;19.53;6.80;;;-0.40;86.90;;;;;;5036306;28;20524;-79
2021/04/15 02:40:54;;;;;;;9.23;6.83;;;-0.40;86.80;;;;;;5034502;28;20204;-79
2021/04/15 02:43:30;;;;;;;13.73;6.93;;;-0.40;86.50;;;;;;5034562;28;20168;-79
2021/04/15 02:45:59;;;;;;;9.57;6.83;;;-0.50;86.40;;;;;;5036136;28;20525;-79
2021/04/15 02:48:28;;;;;;;11.47;7.03;;;-0.50;86.60;;;;;;5034820;28;20169;-79
2021/04/15 02:51:03;;;;;;;12.13;6.57;;;-0.60;86.70;;;;;;5035709;28;20185;-79
2021/04/15 02:53:42;;;;;;;16.20;6.50;;;-0.60;86.70;;;;;;5034514;28;20227;-79
2021/04/15 02:56:10;;;;;;;9.37;6.23;;;-0.60;86.70;;;;;;5035523;28;20165;-79
2021/04/15 02:58:49;;;;;;;12.83;6.87;;;-0.70;86.90;;;;;;5035283;28;20580;-79
2021/04/15 03:01:19;;;;;;;10.87;6.23;;;-0.70;86.80;;;;;;5035255;28;20259;-79
2021/04/15 03:03:49;;;;;;;9.87;6.77;;;-0.70;86.80;;;;;;5035312;28;20168;-79
2021/04/15 03:06:24;;;;;;;11.37;6.03;;;-0.70;87.10;;;;;;5035449;28;20173;-79
2021/04/15 03:08:57;;;;;;;9.27;6.80;;;-0.70;87.60;;;;;;5035530;28;20192;-79
2021/04/15 03:11:31;;;;;;;12.27;7.23;;;-0.60;87.90;;;;;;5035198;28;20180;-79
2021/04/15 03:14:00;;;;;;;16.57;7.37;;;-0.60;88.10;;;;;;5035135;28;20162;-79
2021/04/15 03:16:31;;;;;;;9.03;7.00;;;-0.60;88.40;;;;;;5034972;28;20180;-79
2021/04/15 03:19:14;;;;;;;10.77;7.17;;;-0.60;88.60;;;;;;5034839;28;20157;-79
2021/04/15 03:22:14;;;;;;;12.13;7.80;;;-0.60;88.70;;;;;;5034911;28;20540;-79
2021/04/15 03:24:46;;;;;;;10.20;7.27;;;-0.60;88.90;;;;;;5033904;28;20189;-79
2021/04/15 03:27:29;;;;;;;11.50;7.37;;;-0.60;89.00;;;;;;5034862;28;20185;-79
2021/04/15 03:30:06;;;;;;;9.20;7.07;;;-0.60;89.00;;;;;;5034919;28;20201;-79
2021/04/15 03:32:48;;;;;;;11.53;6.90;;;-0.60;89.00;;;;;;5035117;28;20157;-79
2021/04/15 03:35:38;;;;;;;7.77;6.80;;;-0.70;89.20;;;;;;5035006;28;20164;-79
2021/04/15 03:38:19;;;;;;;9.90;8.13;;;-0.70;89.20;;;;;;5034888;28;20161;-79
2021/04/15 03:40:49;;;;;;;9.97;7.43;;;-0.60;89.20;;;;;;5034671;28;20700;-79
2021/04/15 03:43:22;;;;;;;10.70;7.30;;;-0.60;89.50;;;;;;5034573;28;20176;-79
2021/04/15 03:45:58;;;;;;;11.37;7.70;;;-0.60;89.40;;;;;;5034620;28;20160;-79
2021/04/15 03:48:31;;;;;;;11.37;8.10;;;-0.60;89.20;;;;;;5033408;28;20169;-79
2021/04/15 03:51:05;;;;;;;11.20;7.00;;;-0.70;89.10;;;;;;5033193;28;20250;-79
2021/04/15 03:53:39;;;;;;;8.90;6.80;;;-0.70;89.00;;;;;;5033354;28;20176;-79
2021/04/15 03:56:16;;;;;;;8.63;6.50;;;-0.70;88.90;;;;;;5034613;28;20163;-79
2021/04/15 03:58:44;;;;;;;10.53;6.53;;;-0.70;88.70;;;;;;5034441;28;20202;-79
2021/04/15 04:01:27;;;;;;;11.53;7.13;;;-0.70;88.40;;;;;;5033002;28;20248;-79
2021/04/15 04:04:04;;;;;;;10.07;7.27;;;-0.70;88.00;;;;;;5033036;28;20338;-79
2021/04/15 04:06:33;;;;;;;11.13;7.27;;;-0.70;87.90;;;;;;5034698;28;20164;-79
2021/04/15 04:09:05;;;;;;;8.40;6.70;;;-0.70;87.70;;;;;;5034209;28;20669;-79
2021/04/15 04:11:35;;;;;;;9.83;7.20;;;-0.80;87.50;;;;;;5032802;28;20176;-79
2021/04/15 04:14:40;;;;;;;8.60;6.70;;;-0.80;87.30;;;;;;5034343;28;20187;-79
2021/04/15 04:17:14;;;;;;;11.57;6.67;;;-0.90;87.10;;;;;;5015394;28;20177;-79
2021/04/15 04:19:49;;;;;;;11.00;6.53;;;-0.80;87.10;;;;;;5033967;28;20215;-79
2021/04/15 04:22:33;;;;;;;14.70;9.10;;;-0.80;87.00;;;;;;5034427;28;20168;-79
2021/04/15 04:25:17;;;;;;;7.80;6.83;;;-0.80;87.00;;;;;;5034121;28;20165;-79
2021/04/15 04:28:13;;;;;;;10.70;6.97;;;-0.90;87.10;;;;;;5033561;28;20172;-79
2021/04/15 04:30:55;;;;;;;12.80;7.17;;;-0.90;87.10;;;;;;5033032;28;20267;-79
2021/04/15 04:33:32;;;;;;;15.27;8.07;;;-0.90;87.10;;;;;;5033834;28;20164;-79
2021/04/15 04:35:57;;;;;;;14.20;7.10;;;-0.90;87.00;;;;;;5034238;28;20167;-79
2021/04/15 04:38:23;;;;;;;14.53;7.80;;;-1.00;86.90;;;;;;5034123;28;20176;-79
2021/04/15 04:40:56;;;;;;;11.73;7.20;;;-1.00;86.80;;;;;;5033979;28;20685;-79
2021/04/15 04:43:55;;;;;;;8.80;7.43;;;-0.90;86.70;;;;;;5033852;28;20255;-79
2021/04/15 04:46:43;;;;;;;10.57;7.33;;;-0.90;86.60;;;;;;5034042;28;20167;-79
2021/04/15 04:49:27;;;;;;;7.97;6.73;;;-0.90;86.60;;;;;;5033850;28;20238;-79
2021/04/15 04:52:27;;;;;;;12.50;7.70;;;-0.90;86.60;;;;;;5033944;28;20199;-79
2021/04/15 04:54:53;;;;;;;13.07;8.00;;;-0.80;86.70;;;;;;5032731;28;20184;-79
2021/04/15 04:57:38;;;;;;;9.53;6.90;;;-0.70;86.50;;;;;;5033675;28;20191;-79
2021/04/15 05:00:13;;;;;;;8.70;6.77;;;-0.60;86.30;;;;;;5032072;28;20747;-79
2021/04/15 05:02:39;;;;;;;9.20;7.43;;;-0.60;86.20;;;;;;5033416;28;20173;-79
2021/04/15 05:05:28;;;;;;;13.17;7.30;;;-0.40;86.10;;;;;;5033409;28;20533;-79
2021/04/15 05:08:09;;;;;;;9.80;7.30;;;-0.20;85.90;;;;;;5033639;28;20175;-79
2021/04/15 05:10:35;;;;;;;16.50;7.27;;;-0.20;85.70;;;;;;5033436;28;20283;-79
2021/04/15 05:13:09;;;;;;;9.60;7.13;;;-0.10;85.50;;;;;;5033626;28;20169;-79
2021/04/15 05:15:36;;;;;;;11.20;7.80;;;0.00;85.70;;;;;;5033756;28;20157;-79
2021/04/15 05:18:02;;;;;;;15.27;8.57;;;0.00;85.90;;;;;;5033751;28;20176;-79
2021/04/15 05:20:27;;;;;;;15.60;9.70;;;0.10;86.40;;;;;;5032208;28;20196;-79
2021/04/15 05:23:25;;;;;;;18.43;10.23;;;0.10;86.90;;;;;;5032034;28;20188;-79
2021/04/15 05:26:05;;;;;;;12.90;9.57;;;0.30;88.00;;;;;;5032106;28;20191;-79
2021/04/15 05:28:33;;;;;;;15.20;10.03;;;0.50;88.90;;;;;;5031975;28;20179;-79
2021/04/15 05:31:05;;;;;;;15.80;11.20;;;0.50;89.20;;;;;;5033230;28;20215;-79
2021/04/15 05:33:31;;;;;;;17.03;10.37;;;0.60;89.30;;;;;;5033310;28;20201;-79
2021/04/15 05:36:22;;;;;;;14.47;10.67;;;0.60;89.40;;;;;;5031946;28;20184;-79
2021/04/15 05:38:52;;;;;;;14.77;11.27;;;0.60;89.30;;;;;;5034744;28;20206;-79
2021/04/15 05:41:32;;;;;;;15.10;10.93;;;0.60;89.50;;;;;;5037610;28;20169;-79
2021/04/15 05:44:06;;;;;;;19.07;11.70;;;0.60;89.70;;;;;;5035760;28;20544;-79
2021/04/15 05:46:48;;;;;;;19.87;11.20;;;0.70;89.70;;;;;;5036842;28;20161;-79
2021/04/15 05:49:19;;;;;;;18.43;11.57;;;0.70;89.70;;;;;;5035540;28;20216;-79
2021/04/15 05:51:55;;;;;;;11.93;10.00;;;0.70;89.70;;;;;;5036695;28;20220;-79
2021/04/15 05:54:22;;;;;;;13.37;8.90;;;0.80;89.60;;;;;;5035417;28;20180;-79
2021/04/15 05:56:58;;;;;;;11.70;9.40;;;0.80;89.40;;;;;;5036736;28;20161;-79
2021/04/15 05:59:47;;;;;;;11.27;9.70;;;0.70;89.20;;;;;;5035141;28;20623;-79
2021/04/15 06:02:33;;;;;;;15.80;10.03;;;0.80;89.40;;;;;;5036849;28;20173;-79
2021/04/15 06:05:29;;;;;;;13.83;11.03;;;0.80;89.60;;;;;;5035261;28;20649;-79
2021/04/15 06:08:01;;;;;;;14.27;11.20;;;0.90;89.60;;;;;;5037017;28;20526;-79
2021/04/15 06:10:31;;;;;;;13.30;11.57;;;1.00;89.70;;;;;;5036189;28;20205;-79
2021/04/15 06:13:10;;;;;;;16.23;10.50;;;1.10;89.80;;;;;;5036388;28;20222;-79
2021/04/15 06:15:52;;;;;;;18.00;10.93;;;1.10;89.80;;;;;;5035002;28;20177;-79
2021/04/15 06:18:29;;;;;;;13.77;10.07;;;1.20;89.80;;;;;;5034960;28;20241;-79
2021/04/15 06:21:14;;;;;;;14.07;10.87;;;1.30;89.80;;;;;;5038356;28;20196;-80
2021/04/15 06:23:51;;;;;;;14.23;11.60;;;1.30;89.90;;;;;;5039162;28;20236;-79
2021/04/15 06:26:29;;;;;;;15.23;11.33;;;1.30;89.90;;;;;;5035190;28;20646;-79
2021/04/15 06:28:58;;;;;;;17.40;11.70;;;1.30;90.20;;;;;;5035963;28;20196;-79
2021/04/15 06:31:46;;;;;;;19.43;12.50;;;1.40;90.30;;;;;;5036480;28;20682;-79
2021/04/15 06:34:13;;;;;;;21.20;12.13;;;1.50;90.30;;;;;;5035907;28;20158;-79
2021/04/15 06:37:04;;;;;;;17.17;12.00;;;1.50;90.30;;;;;;5035783;28;20212;-79
2021/04/15 06:39:35;;;;;;;17.37;12.43;;;1.60;90.50;;;;;;5035912;28;20212;-79
2021/04/15 06:42:22;;;;;;;15.97;12.87;;;1.70;90.50;;;;;;5034450;28;20205;-79
2021/04/15 06:45:15;;;;;;;20.90;13.00;;;1.80;90.60;;;;;;5036127;28;20211;-79
2021/04/15 06:48:19;;;;;;;18.90;13.07;;;2.00;90.60;;;;;;5036006;28;20170;-79
2021/04/15 06:51:10;;;;;;;16.43;13.23;;;2.20;90.80;;;;;;5033531;28;20217;-79
2021/04/15 06:53:56;;;;;;;19.67;12.50;;;2.30;90.60;;;;;;5035610;28;20168;-79
2021/04/15 06:56:49;;;;;;;19.20;13.87;;;2.30;90.50;;;;;;5034204;28;20169;-79
2021/04/15 06:59:42;;;;;;;18.10;12.27;;;2.40;90.60;;;;;;5035111;28;20199;-78
2021/04/15 07:02:30;;;;;;;17.00;12.33;;;2.50;90.60;;;;;;5035860;28;20502;-78
2021/04/15 07:05:03;;;;;;;19.83;12.97;;;2.60;90.70;;;;;;5035552;28;20194;-79
2021/04/15 07:07:32;;;;;;;15.67;11.87;;;2.70;90.50;;;;;;5035142;28;20162;-78
2021/04/15 07:10:18;;;;;;;18.23;12.57;;;2.80;90.60;;;;;;5033519;28;20786;-78
2021/04/15 07:12:57;;;;;;;17.73;12.27;;;2.90;90.80;;;;;;5033821;28;20166;-79
2021/04/15 07:15:37;;;;;;;15.27;11.77;;;2.90;90.40;;;;;;5035300;28;20158;-79
2021/04/15 07:18:58;;;;;;;19.40;12.43;;;3.10;90.30;;;;;;5034014;28;20172;-79
2021/04/15 07:21:45;;;;;;;19.87;11.37;;;3.30;90.50;;;;;;4997116;28;20573;-79
2021/04/15 07:24:30;;;;;;;19.50;11.27;;;3.40;89.90;;;;;;5033931;28;20655;-79
2021/04/15 07:27:14;;;;;;;18.80;10.97;;;3.60;89.80;;;;;;5034868;28;20176;-79
2021/04/15 07:29:46;;;;;;;13.57;10.00;;;3.70;90.00;;;;;;5033209;28;20213;-79
2021/04/15 07:32:39;;;;;;;18.60;11.23;;;3.80;89.40;;;;;;5033352;28;20588;-79
2021/04/15 07:35:22;;;;;;;13.77;10.23;;;3.90;89.40;;;;;;5033211;28;20723;-79
2021/04/15 07:38:25;;;;;;;13.47;9.17;;;4.00;88.60;;;;;;5034824;28;20160;-79
2021/04/15 07:41:08;;;;;;;16.13;9.60;;;4.10;88.10;;;;;;5034309;28;20188;-79
2021/04/15 07:43:57;;;;;;;12.87;8.17;;;4.30;88.70;;;;;;5033009;28;20247;-79
2021/04/15 07:47:12;;;;;;;10.77;8.57;;;4.40;87.90;;;;;;5034671;28;20168;-79
2021/04/15 07:49:43;;;;;;;10.13;8.30;;;4.60;88.70;;;;;;5032013;28;20609;-79
2021/04/15 07:52:19;;;;;;;13.63;7.43;;;4.70;87.80;;;;;;5033990;28;20196;-79
2021/04/15 07:55:07;;;;;;;8.43;7.43;;;4.80;87.90;;;;;;5032911;28;20167;-79
2021/04/15 07:57:55;;;;;;;9.40;7.00;;;4.90;87.00;;;;;;5034436;28;20530;-79
2021/04/15 08:00:30;;;;;;;12.23;7.67;;;5.10;87.60;;;;;;5034187;28;20216;-79
2021/04/15 08:03:33;;;;;;;8.53;6.97;;;5.20;87.80;;;;;;5033359;28;20622;-79
2021/04/15 08:06:25;;;;;;;10.77;6.33;;;5.30;87.10;;;;;;5033168;28;20649;-79
2021/04/15 08:09:28;;;;;;;14.03;6.10;;;5.50;86.50;;;;;;5034093;28;20605;-79
2021/04/15 08:12:28;;;;;;;8.07;5.17;;;5.60;84.50;;;;;;5033773;28;20248;-79
2021/04/15 08:15:32;;;;;;;7.53;5.10;;;5.80;84.40;;;;;;5034120;28;20630;-79
2021/04/15 08:18:17;;;;;;;5.77;4.80;;;5.90;82.80;;;;;;5033987;28;20153;-79
2021/04/15 08:21:05;;;;;;;6.27;4.77;;;6.00;82.20;;;;;;5033815;28;20189;-79
2021/04/15 08:23:46;;;;;;;8.60;4.60;;;6.10;82.90;;;;;;5033697;28;20161;-79
2021/04/15 08:26:33;;;;;;;6.27;4.20;;;6.30;82.10;;;;;;5033634;28;20171;-79
2021/04/15 08:29:37;;;;;;;4.17;3.80;;;6.30;79.90;;;;;;5033759;28;20192;-79
2021/04/15 08:32:21;;;;;;;4.30;3.90;;;6.40;79.50;;;;;;5033796;28;20169;-79
2021/04/15 08:35:12;;;;;;;4.67;3.40;;;6.60;79.40;;;;;;5033581;28;20165;-80
2021/04/15 08:37:43;;;;;;;4.60;3.20;;;6.60;76.40;;;;;;5033385;28;20171;-79
2021/04/15 08:40:17;;;;;;;10.83;3.50;;;6.70;78.00;;;;;;5033449;28;20199;-80
2021/04/15 08:43:00;;;;;;;5.13;2.77;;;6.80;76.60;;;;;;5033331;28;20164;-79
2021/04/15 08:45:46;;;;;;;3.33;2.47;;;6.90;73.70;;;;;;5033367;28;20152;-79
2021/04/15 08:48:34;;;;;;;3.37;2.60;;;7.10;73.90;;;;;;5032149;28;20270;-80
2021/04/15 08:51:12;;;;;;;6.10;2.87;;;7.00;70.40;;;;;;5032073;28;20199;-79
2021/04/15 08:54:15;;;;;;;2.60;2.33;;;7.30;71.60;;;;;;5033645;28;20516;-79
2021/04/15 08:56:58;;;;;;;4.87;2.90;;;7.40;71.00;;;;;;5033195;28;20622;-80
2021/04/15 08:59:59;;;;;;;7.47;2.33;;;7.40;70.80;;;;;;5033103;28;20282;-80
2021/04/15 09:02:33;;;;;;;3.90;2.17;;;7.50;68.80;;;;;;5033379;28;20638;-80
2021/04/15 09:05:08;;;;;;;6.07;2.30;;;7.60;65.80;;;;;;5032324;28;20179;-79
2021/04/15 09:07:47;;;;;;;11.77;2.80;;;7.70;67.60;;;;;;5033545;28;20644;-79
2021/04/15 09:10:16;;;;;;;2.90;2.50;;;7.90;71.60;;;;;;5033370;28;20211;-79
2021/04/15 09:13:15;;;;;;;3.60;2.63;;;7.90;69.20;;;;;;5033130;28;20201;-79
2021/04/15 09:16:13;;;;;;;3.33;2.20;;;8.00;69.70;;;;;;5037512;28;20157;-80
2021/04/15 09:19:06;;;;;;;5.47;2.37;;;8.20;67.50;;;;;;5037235;28;20180;-79
2021/04/15 09:21:54;;;;;;;3.37;2.33;;;8.30;67.80;;;;;;5035939;28;20657;-80
2021/04/15 09:24:44;;;;;;;2.73;2.20;;;8.40;64.90;;;;;;5035691;28;20646;-79
2021/04/15 09:27:38;;;;;;;4.03;2.00;;;8.30;62.70;;;;;;5037438;28;20184;-80
2021/04/15 09:30:15;;;;;;;3.10;1.97;;;8.60;65.00;;;;;;5035424;28;20208;-80
2021/04/15 09:33:11;;;;;;;2.37;1.97;;;8.70;64.80;;;;;;5037078;28;20189;-80
2021/04/15 09:36:07;;;;;;;6.10;2.20;;;8.90;67.10;;;;;;5037031;28;20164;-80
2021/04/15 09:38:55;;;;;;;4.40;2.27;;;8.90;64.80;;;;;;5035605;28;20180;-80
2021/04/15 09:41:29;;;;;;;5.40;2.00;;;9.00;59.50;;;;;;5035528;28;20234;-80
2021/04/15 09:43:55;;;;;;;3.47;1.83;;;9.10;63.10;;;;;;5036796;28;20519;-80
2021/04/15 09:46:42;;;;;;;2.93;2.10;;;9.20;61.30;;;;;;5036871;28;20195;-80
2021/04/15 09:49:33;;;;;;;2.23;1.70;;;9.30;61.00;;;;;;5035471;28;20611;-80
2021/04/15 09:52:16;;;;;;;2.43;1.90;;;9.50;58.90;;;;;;5037416;28;20514;-79
2021/04/15 09:55:08;;;;;;;3.87;1.90;;;9.60;61.70;;;;;;5037105;28;20157;-80
2021/04/15 09:57:42;;;;;;;8.63;1.90;;;9.80;61.30;;;;;;5037175;28;20645;-80
2021/04/15 10:00:34;;;;;;;4.93;2.13;;;9.90;59.00;;;;;;5035368;28;20300;-80
2021/04/15 10:03:21;;;;;;;10.27;1.80;;;9.90;60.30;;;;;;5036618;28;20253;-79
2021/04/15 10:06:11;;;;;;;3.27;1.87;;;9.60;54.00;;;;;;5036221;28;20633;-80
2021/04/15 10:08:55;;;;;;;2.43;1.77;;;9.60;52.40;;;;;;5035001;28;20637;-80
2021/04/15 10:11:37;;;;;;;2.63;1.70;;;9.80;57.50;;;;;;5036413;28;20653;-79
2021/04/15 10:14:33;;;;;;;5.97;1.63;;;9.90;56.80;;;;;;5036316;28;20168;-80
2021/04/15 10:17:17;;;;;;;1.73;1.50;;;9.80;53.20;;;;;;5036899;28;20161;-80
2021/04/15 10:20:19;;;;;;;3.70;1.40;;;9.70;50.50;;;;;;5036266;28;20196;-80
2021/04/15 10:22:59;;;;;;;1.63;1.30;;;9.60;52.20;;;;;;5036227;28;20730;-80
2021/04/15 10:25:30;;;;;;;1.67;1.27;;;9.90;50.90;;;;;;5034521;28;20173;-85
2021/04/15 10:28:21;;;;;;;2.93;1.60;;;10.20;45.80;;;;;;5035180;28;20165;-85
2021/04/15 10:30:53;;;;;;;2.33;1.27;;;10.40;51.60;;;;;;5027062;28;20228;-85
2021/04/15 10:33:56;;;;;;;5.97;1.70;;;10.30;48.60;;;;;;5036401;28;20219;-85
2021/04/15 10:36:50;;;;;;;1.90;1.70;;;10.10;48.80;;;;;;5036221;28;20634;-84
2021/04/15 10:39:40;;;;;;;1.23;1.13;;;9.80;48.90;;;;;;5034638;28;20670;-85
2021/04/15 10:42:42;;;;;;;2.73;1.40;;;9.90;47.40;;;;;;5035856;28;20153;-85
2021/04/15 10:45:31;;;;;;;1.60;1.50;;;10.00;48.00;;;;;;5036180;28;20161;-84
2021/04/15 10:48:25;;;;;;;1.47;1.23;;;9.90;50.10;;;;;;5036213;28;20157;-84
2021/04/15 10:51:02;;;;;;;1.73;1.50;;;9.70;48.30;;;;;;5032107;28;20231;-85
2021/04/15 10:53:56;;;;;;;1.57;1.27;;;9.40;47.80;;;;;;5034964;28;20171;-85
2021/04/15 10:56:27;;;;;;;1.47;1.30;;;9.50;51.50;;;;;;5035751;28;20157;-85
2021/04/15 10:58:59;;;;;;;3.10;2.10;;;9.70;48.10;;;;;;5034378;28;20715;-85
2021/04/15 11:01:37;;;;;;;3.10;1.70;;;9.50;49.60;;;;;;5034154;28;20196;-85
2021/04/15 11:04:22;;;;;;;1.90;1.33;;;9.50;48.60;;;;;;5035544;28;20168;-85
2021/04/15 11:07:14;;;;;;;1.20;1.10;;;9.30;47.50;;;;;;5035604;28;20161;-84
2021/04/15 11:09:41;;;;;;;1.93;1.30;;;9.10;47.00;;;;;;5031877;28;20212;-85
2021/04/15 11:12:13;;;;;;;1.40;1.30;;;9.00;48.00;;;;;;5034571;28;20243;-85
2021/04/15 11:14:58;;;;;;;1.70;1.33;;;9.10;49.10;;;;;;5069180;22;20227;-85
2021/04/15 11:17:38;;;;;;;2.30;1.47;;;9.10;44.10;;;;;;5054068;28;20201;-85
2021/04/15 11:20:19;;;;;;;6.67;1.73;;;9.10;46.90;;;;;;5054637;28;20152;-85
2021/04/15 11:23:11;;;;;;;1.40;1.30;;;9.20;47.90;;;;;;5053258;28;20174;-85
2021/04/15 11:25:50;;;;;;;2.20;1.60;;;9.20;47.60;;;;;;5031207;28;20273;-85
2021/04/15 11:28:22;;;;;;;2.37;1.40;;;9.20;50.40;;;;;;5054490;28;20196;-85
2021/04/15 11:30:49;;;;;;;4.00;1.47;;;9.30;51.40;;;;;;5054409;28;20191;-85
2021/04/15 11:33:47;;;;;;;2.00;1.60;;;9.40;50.80;;;;;;5054440;28;20229;-85
2021/04/15 11:36:12;;;;;;;3.77;2.73;;;9.50;50.00;;;;;;5054153;28;20653;-84
2021/04/15 11:38:39;;;;;;;2.87;1.43;;;9.50;51.60;;;;;;5053111;28;20177;-85
2021/04/15 11:41:33;;;;;;;3.07;2.00;;;9.20;50.40;;;;;;5053151;28;20198;-85
2021/04/15 11:44:08;;;;;;;1.90;1.80;;;8.80;52.40;;;;;;5053344;28;20673;-85
2021/04/15 11:46:46;;;;;;;2.60;1.70;;;8.70;52.10;;;;;;5054121;28;20175;-85
2021/04/15 11:49:32;;;;;;;2.80;1.80;;;8.50;52.00;;;;;;5052715;28;20223;-85
2021/04/15 11:52:19;;;;;;;2.00;1.60;;;8.50;53.60;;;;;;5054280;28;20153;-85
2021/04/15 11:54:48;;;;;;;2.13;1.73;;;8.50;52.00;;;;;;5054157;28;20227;-84
2021/04/15 11:57:34;;;;;;;1.43;1.33;;;8.50;52.70;;;;;;5052606;28;20180;-85
2021/04/15 11:59:59;;;;;;;1.90;1.40;;;8.50;50.90;;;;;;5052229;28;20180;-85
2021/04/15 12:03:07;;;;;;;2.60;1.87;;;8.50;48.80;;;;;;5052565;28;20605;-85
2021/04/15 12:05:45;;;;;;;1.50;1.40;;;8.60;49.30;;;;;;5050679;28;20211;-85
2021/04/15 12:08:31;;;;;;;5.40;1.80;;;8.70;48.70;;;;;;5052496;28;20168;-85
2021/04/15 12:11:06;;;;;;;2.57;2.00;;;8.80;51.10;;;;;;5052472;28;20168;-86
2021/04/15 12:14:11;;;;;;;1.40;1.30;;;8.90;51.30;;;;;;5052274;28;20172;-85
2021/04/15 12:17:01;;;;;;;1.80;1.50;;;9.00;50.10;;;;;;5032486;28;20624;-85
2021/04/15 12:19:55;;;;;;;1.40;1.30;;;9.10;47.60;;;;;;5052287;28;20160;-85
2021/04/15 12:22:54;;;;;;;2.23;1.40;;;9.20;50.20;;;;;;5053393;28;20589;-85
2021/04/15 12:25:35;;;;;;;2.43;1.70;;;9.30;48.60;;;;;;5043565;28;20242;-85
2021/04/15 12:28:34;;;;;;;1.67;1.40;;;9.30;47.30;;;;;;5053514;28;20578;-85
2021/04/15 12:31:37;;;;;;;2.07;1.70;;;9.30;45.90;;;;;;5052033;28;20176;-85
2021/04/15 12:34:30;;;;;;;2.33;1.57;;;9.40;47.70;;;;;;5051992;28;20195;-85
2021/04/15 12:37:11;;;;;;;1.40;1.30;;;9.30;48.70;;;;;;5051948;28;20254;-85
2021/04/15 12:39:51;;;;;;;4.70;1.60;;;9.20;49.10;;;;;;5053281;28;20156;-85
2021/04/15 12:42:22;;;;;;;1.13;1.10;;;9.20;44.40;;;;;;5051953;28;20164;-84
2021/04/15 12:44:48;;;;;;;1.87;1.40;;;9.20;43.40;;;;;;5052005;28;20665;-84
2021/04/15 12:47:16;;;;;;;1.80;1.23;;;9.30;43.80;;;;;;5051855;28;20680;-85
2021/04/15 12:49:42;;;;;;;1.73;1.37;;;9.30;44.80;;;;;;5052441;28;20192;-85
2021/04/15 12:52:12;;;;;;;1.73;1.40;;;9.50;45.10;;;;;;5051722;28;20171;-84
2021/04/15 12:54:41;;;;;;;2.07;1.43;;;9.50;45.50;;;;;;5052997;28;20648;-85
2021/04/15 12:57:10;;;;;;;2.10;1.50;;;9.70;46.20;;;;;;5052965;28;20576;-85
2021/04/15 12:59:38;;;;;;;3.90;1.60;;;9.70;43.70;;;;;;5052972;28;20665;-85
2021/04/15 13:02:22;;;;;;;1.50;1.30;;;9.90;45.90;;;;;;5051693;28;20566;-85
2021/04/15 13:05:01;;;;;;;2.00;1.33;;;9.90;45.10;;;;;;5051596;28;20263;-85
2021/04/15 13:07:26;;;;;;;2.07;1.40;;;9.80;43.80;;;;;;5053125;28;20170;-85
2021/04/15 13:10:15;;;;;;;4.63;1.20;;;9.90;42.10;;;;;;5052898;28;20195;-84
2021/04/15 13:12:58;;;;;;;1.33;1.03;;;9.80;40.80;;;;;;5045472;28;20247;-84
2021/04/15 13:15:24;;;;;;;1.20;1.10;;;9.70;40.80;;;;;;5051423;28;20236;-85
2021/04/15 13:17:51;;;;;;;1.30;1.20;;;9.60;42.70;;;;;;5052840;28;20172;-84
2021/04/15 13:20:20;;;;;;;1.90;1.37;;;9.80;39.50;;;;;;5051570;28;20172;-85
2021/04/15 13:23:07;;;;;;;2.53;0.90;;;9.80;41.20;;;;;;5051601;28;20665;-85
2021/04/15 13:25:54;;;;;;;1.60;1.27;;;9.90;39.10;;;;;;5053065;28;20198;-85
2021/04/15 13:28:46;;;;;;;2.73;1.43;;;10.00;40.50;;;;;;5044208;28;20278;-85
2021/04/15 13:31:35;;;;;;;1.03;1.03;;;10.10;40.40;;;;;;5052680;28;20242;-85
2021/04/15 13:34:05;;;;;;;2.40;1.43;;;10.40;38.90;;;;;;5051645;28;20203;-85
2021/04/15 13:36:31;;;;;;;2.50;1.50;;;10.70;39.90;;;;;;5052900;28;20230;-85
2021/04/15 13:39:03;;;;;;;2.90;1.03;;;10.60;37.80;;;;;;5052723;28;20168;-85
2021/04/15 13:41:43;;;;;;;1.60;0.93;;;10.60;38.90;;;;;;5051474;28;20188;-85
2021/04/15 13:44:33;;;;;;;1.47;1.27;;;10.70;35.80;;;;;;5051609;28;20245;-85
2021/04/15 13:46:59;;;;;;;1.00;0.93;;;10.50;38.60;;;;;;5054450;28;20180;-85
2021/04/15 13:49:36;;;;;;;1.30;1.20;;;10.50;38.30;;;;;;5055090;28;20204;-84
2021/04/15 13:52:11;;;;;;;0.80;0.80;;;10.50;38.20;;;;;;5053790;28;20205;-85
2021/04/15 13:54:44;;;;;;;3.60;1.10;;;10.50;33.70;;;;;;5052612;28;20194;-85